Accueil
METAR-TAF:

METAR-TAF

Aéroports :

Benson, Angleterre

latitude: 51-37N, longitude: 001-05W, altitude: 63 m

Observation

Le bulletin a été fait il y a 48 minutes, à 18:50 UTC
Vent 9 kt de sud
Température 10°C
Humidité 57%
Pression 1015 hPa
Visibilité 10 km ou plus

METAR: EGUB 071850Z AUTO 18009KT 9999 // NCD 10/02 Q1015

Heure: 20:38 (19:38 UTC)

Prévision

Le bulletin a été fait il y a 5 heures et 42 minutes, à 13:56 UTC
Prévision valable du 07 à 15 UTC au 07 à 19 UTC
Vent 8 kt de sud-ouest
Visibilité 10 km ou plus
Nuages épars à une hauteur de 4800 ft

TAF: EGUB 071356Z 0715/0719 22008KT 9999 SCT048

Observations et prévisions météorologiques de plus de 4000 aéroports (messages METAR et TAF).

Les stations disponibles sont représentées par des disques jaunes et rouges sur la carte.

Passer la souris dessus pour voir le nom de la station.

Cliquer dessus pour voir les observations et prévisions météorologiques.

Pour changer de carte: cliquez sur les boutons verts avec une croix noire pour zoomer, sur le bouton vert avec un tiret pour effectuer un zoom arrière, ou sur les flèches vertes pour les cartes adjacentes.


METAR-TAF: